Ana Sayfa
METAR-TAF:

METAR-TAF

Havaalanları :

Garner Field

Uvalde, Teksas, Amerika Birleşik Devletleri

Enlem: 29-12-40N, Boylam: 099-44-36W, yükseklik: 287 m

Güncel hava durumu gözlemi

Rapor saat 16:55 UTC de 22 dakika önce yapıldı.
Rüzgar kuzeydan 9 kt
Sıcaklık 27°C
Nem 62%
Basınç 1017 hPa
Görüş mesafesi: 16.1 km
6000 ft yükseklikte parçalı çok bulutlu

METAR: KUVA 221655Z AUTO 36009KT 10SM BKN060 27/19 A3004 RMK AO2 T02700185

Saat: 12:17 (17:17 UTC)


TAF: eksik

4.000'den fazla havaalanı için hava durumu gözlemleri ve tahminleri (METAR ve TAF raporları).

Kullanılabilir istasyonlar harita üzerinde sarı ve kırmızı noktalarla gösterilir.

İstasyonun adını görmek için fareyi noktanın üzerinde gezdirin.

Sonrasında hava gözlem ve tahminlerini görmek için tıklayın.

Haritayı değiştirmek için: yaklaştırmak için siyah artı işaretli yeşil düğmeye ve uzaklaştırmak için de eksi işaretli düğmeye hızla tıklayın; bitişik haritalar için yeşil okları kullanın.


METAR-TAF: